createdAt,value
2023-03-07T00:01:29.179Z,24.33
2023-03-07T00:03:57.508Z,24.40
2023-03-07T00:06:25.267Z,23.50
2023-03-07T00:08:59.799Z,22.65
2023-03-07T00:11:27.728Z,24.02
2023-03-07T00:13:57.399Z,22.02
2023-03-07T00:16:27.314Z,25.08
2023-03-07T00:18:55.525Z,24.17
2023-03-07T00:21:27.433Z,19.45
2023-03-07T00:23:54.858Z,22.27
2023-03-07T00:26:23.835Z,21.95
2023-03-07T00:28:53.438Z,22.77
2023-03-07T00:31:22.040Z,22.92
2023-03-07T00:33:51.920Z,22.45
2023-03-07T00:36:21.815Z,23.77
2023-03-07T00:38:50.340Z,20.55
2023-03-07T00:41:26.002Z,20.52
2023-03-07T00:43:54.743Z,20.65
2023-03-07T00:46:23.777Z,18.33
2023-03-07T00:48:51.199Z,21.80
2023-03-07T00:51:19.807Z,21.58
2023-03-07T00:53:47.278Z,19.70
2023-03-07T00:56:17.108Z,19.48
2023-03-07T00:58:47.605Z,19.90
2023-03-07T01:01:17.431Z,18.00
2023-03-07T01:03:45.680Z,20.52
2023-03-07T01:06:15.296Z,20.48
2023-03-07T01:08:43.040Z,21.27
2023-03-07T01:11:11.754Z,22.58
2023-03-07T01:13:39.175Z,19.55
2023-03-07T01:16:12.633Z,17.70
2023-03-07T01:18:40.650Z,16.00
2023-03-07T01:21:17.223Z,17.55
2023-03-07T01:23:44.819Z,20.00
2023-03-07T01:26:20.539Z,18.90
2023-03-07T01:28:50.737Z,16.13
2023-03-07T01:31:18.261Z,15.65
2023-03-07T01:33:48.569Z,15.63
2023-03-07T01:36:30.522Z,13.88
2023-03-07T01:39:02.683Z,14.27
2023-03-07T01:41:32.304Z,14.63
2023-03-07T01:44:02.501Z,14.05
2023-03-07T01:46:43.912Z,11.93
2023-03-07T01:49:33.015Z,13.57
2023-03-07T01:53:01.148Z,14.10
2023-03-07T01:55:32.864Z,15.43
2023-03-07T01:58:09.859Z,15.50
2023-03-07T02:00:40.253Z,13.43
2023-03-07T02:03:10.574Z,15.52
2023-03-07T02:05:47.664Z,14.38
2023-03-07T02:08:18.661Z,12.98
2023-03-07T02:10:46.077Z,15.90
2023-03-07T02:13:13.553Z,13.68
2023-03-07T02:15:40.957Z,14.77
2023-03-07T02:18:12.329Z,14.13
2023-03-07T02:21:09.412Z,15.10
2023-03-07T02:23:42.135Z,12.98
2023-03-07T02:26:20.796Z,13.45
2023-03-07T02:28:50.800Z,14.15
2023-03-07T02:31:18.649Z,15.57
2023-03-07T02:33:48.243Z,14.10
2023-03-07T02:36:20.685Z,14.60
2023-03-07T02:38:52.682Z,12.43
2023-03-07T02:41:27.096Z,13.57
2023-03-07T02:43:54.384Z,12.48
2023-03-07T02:46:21.742Z,15.10
2023-03-07T02:48:53.870Z,14.50
2023-03-07T02:51:21.309Z,16.20
2023-03-07T02:53:51.355Z,13.38
2023-03-07T02:56:20.724Z,14.23
2023-03-07T02:58:47.927Z,15.18
2023-03-07T03:01:15.358Z,13.63
2023-03-07T03:03:42.707Z,13.77
2023-03-07T03:06:10.283Z,14.18
2023-03-07T03:08:37.547Z,15.40
2023-03-07T03:11:08.061Z,13.32
2023-03-07T03:13:36.781Z,13.02
2023-03-07T03:16:07.958Z,15.63
2023-03-07T03:18:35.276Z,13.65
2023-03-07T03:21:10.374Z,13.07
2023-03-07T03:23:37.967Z,15.52
2023-03-07T03:26:11.668Z,12.88
2023-03-07T03:28:40.092Z,13.98
2023-03-07T03:31:10.565Z,12.70
2023-03-07T03:33:40.210Z,15.52
2023-03-07T03:36:11.469Z,12.43
2023-03-07T03:38:39.294Z,15.52
2023-03-07T03:41:08.778Z,13.13
2023-03-07T03:43:36.435Z,14.77
2023-03-07T03:46:03.996Z,15.43
2023-03-07T03:48:31.310Z,15.30
2023-03-07T03:51:05.862Z,16.33
2023-03-07T03:53:35.354Z,14.07
2023-03-07T03:56:12.043Z,14.32
2023-03-07T03:58:42.328Z,15.10
2023-03-07T04:01:12.430Z,16.67
2023-03-07T04:03:47.567Z,15.25
2023-03-07T04:06:18.650Z,15.55
2023-03-07T04:08:46.642Z,15.68
2023-03-07T04:11:14.409Z,14.77
2023-03-07T04:13:41.958Z,13.43
2023-03-07T04:16:09.783Z,15.02
2023-03-07T04:18:37.196Z,13.60
2023-03-07T04:21:06.012Z,16.42
2023-03-07T04:23:34.067Z,12.43
2023-03-07T04:26:03.884Z,15.43
2023-03-07T04:28:49.464Z,13.70
2023-03-07T04:31:19.550Z,15.15
2023-03-07T04:33:50.392Z,14.90
2023-03-07T04:36:18.048Z,16.90
2023-03-07T04:38:48.919Z,16.20
2023-03-07T04:41:21.827Z,19.13
2023-03-07T04:43:49.414Z,15.00
2023-03-07T04:46:17.677Z,16.55
2023-03-07T04:48:46.338Z,16.45
2023-03-07T04:51:14.103Z,15.85
2023-03-07T04:53:41.472Z,15.75
2023-03-07T04:56:09.916Z,15.60
2023-03-07T04:58:37.878Z,19.08
2023-03-07T05:01:07.751Z,15.63
2023-03-07T05:03:35.905Z,13.98
2023-03-07T05:06:06.087Z,15.52
2023-03-07T05:08:34.191Z,17.02
2023-03-07T05:11:01.677Z,14.38
2023-03-07T05:13:28.951Z,17.48
2023-03-07T05:15:59.957Z,16.30
2023-03-07T05:18:27.921Z,16.38
2023-03-07T05:20:55.319Z,17.17
2023-03-07T05:23:22.636Z,19.02
2023-03-07T05:25:50.116Z,17.77
2023-03-07T05:28:17.728Z,15.30
2023-03-07T05:30:47.782Z,21.15
2023-03-07T05:33:17.509Z,15.77
2023-03-07T05:35:48.215Z,19.52
2023-03-07T05:38:20.877Z,17.08
2023-03-07T05:40:51.601Z,17.08
2023-03-07T05:43:21.307Z,17.30
2023-03-07T05:45:51.049Z,20.83
2023-03-07T05:48:18.357Z,18.52
2023-03-07T05:50:45.734Z,16.40
2023-03-07T05:53:15.194Z,19.15
2023-03-07T05:55:42.474Z,20.95
2023-03-07T05:58:09.829Z,17.65
2023-03-07T06:00:37.109Z,17.90
2023-03-07T06:03:07.077Z,17.20
2023-03-07T06:05:37.065Z,16.40
2023-03-07T06:08:07.805Z,17.00
2023-03-07T06:10:35.155Z,18.52
2023-03-07T06:13:02.457Z,15.45
2023-03-07T06:15:29.709Z,18.00
2023-03-07T06:17:59.385Z,16.30
2023-03-07T06:20:26.724Z,18.25
2023-03-07T06:22:53.989Z,16.35
2023-03-07T06:25:23.781Z,15.68
2023-03-07T06:27:51.095Z,19.38
2023-03-07T06:30:18.445Z,19.08
2023-03-07T06:32:45.703Z,17.15
2023-03-07T06:35:12.921Z,19.05
2023-03-07T06:37:42.494Z,16.65
2023-03-07T06:40:10.924Z,16.15
2023-03-07T06:42:38.676Z,19.48
2023-03-07T06:45:06.708Z,17.38
2023-03-07T06:47:36.510Z,17.10
2023-03-07T06:50:04.402Z,18.55
2023-03-07T06:52:31.618Z,17.33
2023-03-07T06:54:58.879Z,19.88
2023-03-07T06:57:29.350Z,19.70
2023-03-07T06:59:56.592Z,19.23
2023-03-07T07:02:24.035Z,21.35
2023-03-07T07:04:51.493Z,15.60
2023-03-07T07:07:18.757Z,15.82
2023-03-07T07:09:48.481Z,16.20
2023-03-07T07:12:15.819Z,17.33
2023-03-07T07:14:43.153Z,20.05
2023-03-07T07:17:12.855Z,19.40
2023-03-07T07:19:42.586Z,17.25
2023-03-07T07:22:15.940Z,15.85
2023-03-07T07:24:45.564Z,16.23
2023-03-07T07:27:13.081Z,20.48
2023-03-07T07:29:40.361Z,18.00
2023-03-07T07:32:07.956Z,17.02
2023-03-07T07:34:37.777Z,15.18
2023-03-07T07:37:08.457Z,17.00
2023-03-07T07:39:43.135Z,16.00
2023-03-07T07:42:11.683Z,15.23
2023-03-07T07:44:38.968Z,17.50
2023-03-07T07:47:06.330Z,13.98
2023-03-07T07:49:33.634Z,15.43
2023-03-07T07:52:03.510Z,15.68
2023-03-07T07:54:33.710Z,14.73
2023-03-07T07:57:01.012Z,16.35
2023-03-07T07:59:34.081Z,14.05
2023-03-07T08:02:04.218Z,14.25
2023-03-07T08:04:35.516Z,13.73
2023-03-07T08:07:02.757Z,13.85
2023-03-07T08:09:29.973Z,12.95
2023-03-07T08:11:57.230Z,13.98
2023-03-07T08:14:29.232Z,14.27
2023-03-07T08:16:56.742Z,12.55
2023-03-07T08:19:26.177Z,15.00
2023-03-07T08:21:53.549Z,12.77
2023-03-07T08:24:27.102Z,12.75
2023-03-07T08:27:01.720Z,11.98
2023-03-07T08:29:31.205Z,12.50
2023-03-07T08:31:58.462Z,12.57
2023-03-07T08:34:25.662Z,11.80
2023-03-07T08:36:53.186Z,11.88
2023-03-07T08:39:23.150Z,12.02
2023-03-07T08:41:55.179Z,11.13
2023-03-07T08:44:22.658Z,11.98
2023-03-07T08:46:49.985Z,12.27
2023-03-07T08:49:17.321Z,12.00
2023-03-07T08:51:47.722Z,12.48
2023-03-07T08:54:15.220Z,10.52
2023-03-07T08:56:45.199Z,12.95
2023-03-07T08:59:12.467Z,12.25
2023-03-07T09:01:42.196Z,12.18
2023-03-07T09:04:09.450Z,11.13
2023-03-07T09:06:36.725Z,10.30
2023-03-07T09:09:06.448Z,11.68
2023-03-07T09:11:33.856Z,12.40
2023-03-07T09:14:01.078Z,12.20
2023-03-07T09:16:31.027Z,12.02
2023-03-07T09:18:58.278Z,11.82
2023-03-07T09:21:28.386Z,14.10
2023-03-07T09:23:55.698Z,12.45
2023-03-07T09:26:23.121Z,12.95
2023-03-07T09:28:52.710Z,12.93
2023-03-07T09:31:20.058Z,12.07
2023-03-07T09:33:47.434Z,12.90
2023-03-07T09:36:15.848Z,12.90
2023-03-07T09:38:43.080Z,11.52
2023-03-07T09:41:38.371Z,11.55
2023-03-07T09:44:35.834Z,13.88
2023-03-07T09:47:23.645Z,12.40
2023-03-07T09:49:54.701Z,12.68
2023-03-07T09:52:32.286Z,14.57
2023-03-07T09:55:03.320Z,12.52
2023-03-07T09:57:47.134Z,11.43
2023-03-07T10:00:20.921Z,13.07
2023-03-07T10:03:09.419Z,11.52
2023-03-07T10:05:47.541Z,13.10
2023-03-07T10:08:26.216Z,14.57
2023-03-07T10:11:23.092Z,13.65
2023-03-07T10:14:28.667Z,13.70
2023-03-07T10:17:15.595Z,12.75
2023-03-07T10:19:49.087Z,11.65
2023-03-07T10:22:58.229Z,12.52
2023-03-07T10:25:37.399Z,12.30
2023-03-07T10:28:26.540Z,12.57
2023-03-07T10:30:59.711Z,11.98
2023-03-07T10:33:31.439Z,11.35
2023-03-07T10:39:01.814Z,12.73
2023-03-07T10:41:29.664Z,12.20
2023-03-07T10:44:01.834Z,15.10
2023-03-07T10:46:33.135Z,12.30
2023-03-07T10:49:18.088Z,11.93
2023-03-07T10:52:23.211Z,12.13
2023-03-07T10:54:50.490Z,15.80
2023-03-07T10:57:21.148Z,11.70
2023-03-07T10:59:51.720Z,12.55
2023-03-07T11:02:31.313Z,12.82
2023-03-07T11:04:59.155Z,12.05
2023-03-07T11:07:28.321Z,13.40
2023-03-07T11:09:57.734Z,12.73
2023-03-07T11:12:31.945Z,11.70
2023-03-07T11:15:24.689Z,14.10
2023-03-07T11:17:52.652Z,13.48
2023-03-07T11:20:30.638Z,10.85
2023-03-07T11:23:26.431Z,12.85
2023-03-07T11:25:55.882Z,11.88
2023-03-07T11:28:27.850Z,11.68
2023-03-07T11:31:24.110Z,14.13
2023-03-07T11:34:15.605Z,14.68
2023-03-07T11:36:48.664Z,12.85
2023-03-07T11:39:52.908Z,11.38
2023-03-07T11:42:24.817Z,13.60
2023-03-07T11:45:02.915Z,11.27
2023-03-07T11:47:45.806Z,12.50
2023-03-07T11:50:29.373Z,14.02
2023-03-07T11:53:21.993Z,13.80
2023-03-07T11:56:03.188Z,12.32
2023-03-07T11:58:42.090Z,13.98
2023-03-07T12:01:27.723Z,12.93
2023-03-07T12:04:12.635Z,13.45
2023-03-07T12:07:06.207Z,11.15
2023-03-07T12:10:08.107Z,11.02
2023-03-07T12:12:45.222Z,14.38
2023-03-07T12:15:49.835Z,12.98
2023-03-07T12:18:44.586Z,11.82
2023-03-07T12:21:36.541Z,14.70
2023-03-07T12:24:13.792Z,13.52
2023-03-07T12:27:04.257Z,12.88
2023-03-07T12:29:54.070Z,15.15
2023-03-07T12:32:32.415Z,11.32
2023-03-07T12:35:08.642Z,10.82
2023-03-07T12:37:45.935Z,12.13
2023-03-07T12:40:30.739Z,13.50
2023-03-07T12:43:10.111Z,13.13
2023-03-07T12:45:51.308Z,14.50
2023-03-07T12:48:29.230Z,13.25
2023-03-07T12:51:00.076Z,13.63
2023-03-07T12:53:36.169Z,14.57
2023-03-07T12:56:32.720Z,11.30
2023-03-07T12:59:13.183Z,13.80
2023-03-07T13:01:48.772Z,12.13
2023-03-07T13:04:34.965Z,12.27
2023-03-07T13:07:28.161Z,12.80
2023-03-07T13:10:03.602Z,11.73
2023-03-07T13:12:37.678Z,14.02
2023-03-07T13:15:08.001Z,12.20
2023-03-07T13:17:35.404Z,11.85
2023-03-07T13:20:27.439Z,14.32
2023-03-07T13:25:33.420Z,12.02
2023-03-07T13:28:06.159Z,12.68
2023-03-07T13:30:34.670Z,13.70
2023-03-07T13:33:21.500Z,13.02
2023-03-07T13:36:00.047Z,13.93
2023-03-07T13:38:44.603Z,16.33
2023-03-07T13:41:13.502Z,14.57
2023-03-07T13:43:48.776Z,13.60
2023-03-07T13:46:24.603Z,13.43
2023-03-07T13:48:55.021Z,15.70
2023-03-07T13:51:22.570Z,14.30
2023-03-07T13:53:59.757Z,14.15
2023-03-07T13:56:30.376Z,13.25
2023-03-07T13:59:02.305Z,14.57
2023-03-07T14:01:54.270Z,14.00
2023-03-07T14:07:21.332Z,14.88
2023-03-07T14:10:19.569Z,14.55
2023-03-07T14:12:56.798Z,15.07
2023-03-07T14:15:39.969Z,14.38
2023-03-07T14:18:21.265Z,13.30
2023-03-07T14:21:07.265Z,15.52
2023-03-07T14:23:59.232Z,15.63
2023-03-07T14:29:22.836Z,13.70
2023-03-07T14:31:57.126Z,16.02
2023-03-07T14:34:24.447Z,15.13
2023-03-07T14:37:00.247Z,13.38
2023-03-07T14:40:09.865Z,13.50
2023-03-07T14:43:16.058Z,14.45
2023-03-07T14:45:46.291Z,14.23
2023-03-07T14:48:35.007Z,14.68
2023-03-07T14:51:13.231Z,14.32
2023-03-07T14:53:42.845Z,13.65
2023-03-07T14:56:13.096Z,15.10
2023-03-07T14:58:50.691Z,15.10
2023-03-07T15:01:19.741Z,15.32
2023-03-07T15:03:52.492Z,13.93
2023-03-07T15:06:24.044Z,14.00
2023-03-07T15:08:52.480Z,14.23
2023-03-07T15:11:44.655Z,14.32
2023-03-07T15:14:20.099Z,13.90
2023-03-07T15:16:54.234Z,13.55
2023-03-07T15:19:30.238Z,15.38
2023-03-07T15:22:00.307Z,14.75
2023-03-07T15:24:37.578Z,13.70
2023-03-07T15:27:10.838Z,13.25
2023-03-07T15:29:45.581Z,13.68
2023-03-07T15:32:37.259Z,16.25
2023-03-07T15:35:13.199Z,14.23
2023-03-07T15:37:59.920Z,14.18
2023-03-07T15:40:34.241Z,15.27
2023-03-07T15:43:04.799Z,15.35
2023-03-07T15:45:32.196Z,13.73
2023-03-07T15:48:10.596Z,14.07
2023-03-07T15:50:37.883Z,16.42
2023-03-07T15:53:47.550Z,12.98
2023-03-07T15:56:26.774Z,12.98
2023-03-07T15:58:59.796Z,13.20
2023-03-07T16:01:27.993Z,14.38
2023-03-07T16:04:03.125Z,16.08
2023-03-07T16:06:41.909Z,15.75
2023-03-07T16:09:19.855Z,16.27
2023-03-07T16:11:47.365Z,14.70
2023-03-07T16:14:22.634Z,14.38
2023-03-07T16:16:50.288Z,14.75
2023-03-07T16:19:20.197Z,16.35
2023-03-07T16:21:47.437Z,13.40
2023-03-07T16:24:16.996Z,17.08
2023-03-07T16:26:45.507Z,14.27
2023-03-07T16:29:18.307Z,14.05
2023-03-07T16:31:45.802Z,15.15
2023-03-07T16:34:20.064Z,15.35
2023-03-07T16:36:49.758Z,14.30
2023-03-07T16:39:18.443Z,15.30
2023-03-07T16:41:50.038Z,14.82
2023-03-07T16:44:19.772Z,14.55
2023-03-07T16:46:57.925Z,14.48
2023-03-07T16:49:25.292Z,16.23
2023-03-07T16:52:05.189Z,14.75
2023-03-07T16:54:33.829Z,15.57
2023-03-07T16:57:06.996Z,14.95
2023-03-07T16:59:37.304Z,15.52
2023-03-07T17:02:14.670Z,16.65
2023-03-07T17:04:44.693Z,18.65
2023-03-07T17:07:17.289Z,17.38
2023-03-07T17:09:46.733Z,16.27
2023-03-07T17:12:16.749Z,16.25
2023-03-07T17:14:44.657Z,16.48
2023-03-07T17:17:19.161Z,17.35
2023-03-07T17:19:46.501Z,17.77
2023-03-07T17:22:13.861Z,17.35
2023-03-07T17:24:41.140Z,16.92
2023-03-07T17:27:09.462Z,19.55
2023-03-07T17:29:51.980Z,18.38
2023-03-07T17:32:19.464Z,16.90
2023-03-07T17:34:49.057Z,17.70
2023-03-07T17:37:16.486Z,16.20
2023-03-07T17:39:45.561Z,16.52
2023-03-07T17:42:12.920Z,17.77
2023-03-07T17:44:40.618Z,18.38
2023-03-07T17:47:07.900Z,20.10
2023-03-07T17:49:38.820Z,20.40
2023-03-07T17:52:07.491Z,17.83
2023-03-07T17:54:38.342Z,17.60
2023-03-07T17:57:05.757Z,15.47
2023-03-07T17:59:35.256Z,16.33
2023-03-07T18:02:02.641Z,16.85
2023-03-07T18:04:31.350Z,16.80
2023-03-07T18:07:01.996Z,19.40
2023-03-07T18:09:31.625Z,18.63
2023-03-07T18:11:59.387Z,19.05
2023-03-07T18:14:27.264Z,23.38
2023-03-07T18:16:59.318Z,21.55
2023-03-07T18:19:27.430Z,21.85
2023-03-07T18:21:57.804Z,21.27
2023-03-07T18:24:28.192Z,21.92
2023-03-07T18:26:56.921Z,23.10
2023-03-07T18:29:27.012Z,24.13
2023-03-07T18:31:57.693Z,23.17
2023-03-07T18:34:27.375Z,23.00
2023-03-07T18:37:47.520Z,21.38
2023-03-07T18:40:14.996Z,21.98
2023-03-07T18:42:42.619Z,23.08
2023-03-07T18:45:10.654Z,23.65
2023-03-07T18:47:37.950Z,20.63
2023-03-07T18:50:05.737Z,24.83
2023-03-07T18:52:32.999Z,24.40
2023-03-07T18:55:00.285Z,25.73
2023-03-07T18:57:27.531Z,25.65
2023-03-07T18:59:54.849Z,24.02
2023-03-07T19:02:24.789Z,23.63
2023-03-07T19:04:53.959Z,21.80
2023-03-07T19:07:30.007Z,23.33
2023-03-07T19:09:57.623Z,20.10
2023-03-07T19:12:24.934Z,21.13
2023-03-07T19:14:52.247Z,20.80
2023-03-07T19:17:19.478Z,20.98
2023-03-07T19:19:48.396Z,20.23
2023-03-07T19:22:16.090Z,20.13
2023-03-07T19:24:47.567Z,21.73
2023-03-07T19:27:17.270Z,20.85
2023-03-07T19:29:46.893Z,18.67
2023-03-07T19:32:14.583Z,19.60
2023-03-07T19:34:41.890Z,20.42
2023-03-07T19:37:09.173Z,19.83
2023-03-07T19:39:37.227Z,19.95
2023-03-07T19:42:04.681Z,20.35
2023-03-07T19:44:31.932Z,18.17
2023-03-07T19:46:59.134Z,20.42
2023-03-07T19:49:31.149Z,20.10
2023-03-07T19:52:00.982Z,18.13
2023-03-07T19:54:28.554Z,20.25
2023-03-07T19:56:58.370Z,22.13
2023-03-07T19:59:25.578Z,20.55
2023-03-07T20:01:52.877Z,26.38
2023-03-07T20:04:22.406Z,27.95
2023-03-07T20:06:49.750Z,25.42
2023-03-07T20:09:17.086Z,23.58
2023-03-07T20:11:48.811Z,22.50
2023-03-07T20:16:43.428Z,21.20
2023-03-07T20:19:10.906Z,23.38
2023-03-07T20:21:38.825Z,21.52
2023-03-07T20:24:08.183Z,25.45
2023-03-07T20:26:37.696Z,34.30
2023-03-07T20:32:33.495Z,27.00
2023-03-07T20:35:03.411Z,29.10
2023-03-07T20:37:33.049Z,26.05
2023-03-07T20:40:04.621Z,27.15
2023-03-07T20:45:04.638Z,26.75
2023-03-07T20:47:36.201Z,22.80
2023-03-07T20:50:03.832Z,28.45
2023-03-07T20:52:31.106Z,24.95
2023-03-07T20:55:00.747Z,25.73
2023-03-07T20:57:28.087Z,25.98
2023-03-07T20:59:57.624Z,22.75
2023-03-07T21:02:24.929Z,26.23
2023-03-07T21:04:52.159Z,26.02
2023-03-07T21:07:21.906Z,30.30
2023-03-07T21:09:50.990Z,30.08
2023-03-07T21:12:18.493Z,24.15
2023-03-07T21:14:50.123Z,23.95
2023-03-07T21:17:17.428Z,24.45
2023-03-07T21:19:44.766Z,22.38
2023-03-07T21:22:12.254Z,20.27
2023-03-07T21:24:42.038Z,21.45
2023-03-07T21:27:09.566Z,20.48
2023-03-07T21:29:36.901Z,17.77
2023-03-07T21:32:04.538Z,18.27
2023-03-07T21:34:31.891Z,18.55
2023-03-07T21:36:59.205Z,16.92
2023-03-07T21:39:26.735Z,16.67
2023-03-07T21:41:54.547Z,18.15
2023-03-07T21:44:21.817Z,15.10
2023-03-07T21:46:49.167Z,15.07
2023-03-07T21:49:16.932Z,15.65
2023-03-07T21:51:44.345Z,11.88
2023-03-07T21:54:11.948Z,11.95
2023-03-07T21:56:39.341Z,11.90
2023-03-07T21:59:07.108Z,12.20
2023-03-07T22:01:34.425Z,13.23
2023-03-07T22:04:01.787Z,13.20
2023-03-07T22:06:33.397Z,15.43
2023-03-07T22:09:03.148Z,16.63
2023-03-07T22:11:32.965Z,12.13
2023-03-07T22:14:00.214Z,14.05
2023-03-07T22:16:27.639Z,14.45
2023-03-07T22:18:58.163Z,12.50
2023-03-07T22:21:26.649Z,10.98
2023-03-07T22:24:00.842Z,11.52
2023-03-07T22:26:32.050Z,12.07
2023-03-07T22:29:02.750Z,11.60
2023-03-07T22:31:30.402Z,10.93
2023-03-07T22:33:58.862Z,11.65
2023-03-07T22:36:26.253Z,10.00
2023-03-07T22:38:56.749Z,13.30
2023-03-07T22:41:26.938Z,11.88
2023-03-07T22:43:54.467Z,11.02
2023-03-07T22:46:22.173Z,11.82
2023-03-07T22:48:55.736Z,11.32
2023-03-07T22:51:24.759Z,11.80
2023-03-07T22:53:52.452Z,10.88
2023-03-07T22:56:22.359Z,13.48
2023-03-07T22:58:49.805Z,12.48
2023-03-07T23:01:25.037Z,13.95
2023-03-07T23:03:53.814Z,12.20
2023-03-07T23:06:22.439Z,12.88
2023-03-07T23:08:54.234Z,12.10
2023-03-07T23:13:50.190Z,12.23
2023-03-07T23:16:20.016Z,11.32
2023-03-07T23:18:50.754Z,14.18
2023-03-07T23:21:20.976Z,11.20
2023-03-07T23:23:48.804Z,12.05
2023-03-07T23:26:22.470Z,10.98
2023-03-07T23:28:49.855Z,11.93
2023-03-07T23:31:29.707Z,12.85
2023-03-07T23:33:59.545Z,12.07
2023-03-07T23:36:29.181Z,12.75
2023-03-07T23:38:57.965Z,12.82
2023-03-07T23:41:25.913Z,12.35
2023-03-07T23:43:58.337Z,14.40
2023-03-07T23:46:26.230Z,11.80
2023-03-07T23:48:54.074Z,14.55
2023-03-07T23:51:22.229Z,11.73
2023-03-07T23:53:49.670Z,12.40
2023-03-07T23:56:17.211Z,13.98
2023-03-07T23:58:49.547Z,16.58
